• Join FlightAware (Why Join?)
  • Login
  • US Flag 
02:56AM EDT


 

Airport Tracker/Info


-or-


 

Live Flight TrackerFlight Track Log ✈ AAR8738 ✈ 21-Jul-2013 ✈ RKJY / RSU - RKSS / GMP

Flight Track Log - Related Links

Times and Time Zones

All times are in EDT time to prevent confusion due to time zone crossing. See the AAR8738 flight status page for this flight to view local times or setup timezone preferences in your user account.

Time Position Orientation Groundspeed Altitude Reporting Facility
EDT Latitude Longitude Course Direction KTS MPH feet Rate Location/Type
06:00AM 35.1428 127.5263 346° North  Level Estimated
06:01AM 35.2185 127.5039 346° North  Level Estimated
06:02AM 35.2943 127.4815 346° North  Level Estimated
06:03AM 35.3700 127.4590 346° North  Level Estimated
06:04AM 35.4457 127.4365 346° North  Level Estimated
06:05AM 35.5214 127.4140 346° North  Level Estimated
06:06AM 35.5971 127.3914 346° North  Level Estimated
06:07AM 35.6729 127.3688 346° North  Level Estimated
06:08AM 35.7486 127.3461 346° North  Level Estimated
06:09AM 35.8243 127.3234 346° North  Level Estimated
06:10AM 35.9000 127.3007 346° North  Level Estimated
06:11AM 35.9757 127.2779 346° North  Level Estimated
06:12AM 36.0513 127.2550 346° North  Level Estimated
06:13AM 36.1270 127.2321 346° North  Level Estimated
06:14AM 36.2027 127.2092 346° North  Level Estimated
06:15AM 36.2784 127.1862 346° North  Level Estimated
06:16AM 36.3540 127.1632 346° North  Level Estimated
06:17AM 36.4297 127.1402 346° North  Level Estimated
06:18AM 36.5054 127.1171 346° North  Level Estimated
06:19AM 36.5810 127.0939 346° North  Level Estimated
06:20AM 36.6567 127.0707 346° North  Level Estimated
06:21AM 36.7323 127.0475 346° North  Level Estimated
06:22AM 36.8080 127.0242 346° North  Level Estimated
06:22AM 37.0820 127.3020 346° North 339 390 12,200  Level FlightAware
06:23AM 36.8836 127.0008 346° North  Level Estimated
06:23AM 37.1410 127.3250 17° North 337 388 12,200  Level FlightAware
06:24AM 37.1920 127.2870 329° Northwest 316 364 12,200  Level FlightAware
06:24AM 37.2360 127.2230 311° West 316 364 12,200  Level FlightAware
06:25AM 37.2760 127.1660 311° West 316 364 12,200  Level FlightAware
06:26AM 37.3180 127.1030 310° West 309 356 12,200 -360 Level FlightAware
06:26AM 37.3510 127.0430 305° West 311 358 11,700 -960 Descending FlightAware
06:27AM 37.3870 126.9780 305° West 313 360 10,900 -1,020 Descending FlightAware
06:28AM 37.4170 126.9180 302° West 285 328 10,300 -960 Descending FlightAware
06:28AM 37.4320 126.8710 292° West 271 312 9,800 -1,140 Descending FlightAware
06:29AM 37.4460 126.8290 293° West 272 313 9,200 -1,020 Descending FlightAware
06:29AM 37.4570 126.7930 291° West 274 315 8,900 -900 Descending FlightAware
06:30AM 37.4720 126.7460 292° West 269 310 8,300 -960 Descending FlightAware
06:30AM 37.4870 126.7040 294° West 229 264 7,900 -1,080 Descending FlightAware
06:31AM 37.5060 126.6770 312° West 230 265 7,300 -1,740 Descending FlightAware
06:31AM 37.5240 126.6540 315° West 234 269 6,500 -2,040 Descending FlightAware
06:34AM 37.5583 126.7906 72° East  Level Estimated
06:35AM 37.5583 126.7906 288° West  Level Estimated
06:36AM 37.5583 126.7906 288° West  Level Estimated
06:37AM 37.5583 126.7906 288° West  Level Estimated
06:38AM 37.5583 126.7906 288° West  Level Estimated
06:39AM 37.5583 126.7906 288° West  Level Estimated
06:40AM 37.5583 126.7906 288° West  Level Estimated
06:41AM 37.5583 126.7906 288° West  Level Estimated
06:42AM 37.5583 126.7906 288° West  Level Estimated
06:43AM 37.5583 126.7906 288° West  Level Estimated
06:44AM 37.5583 126.7906 288° West  Level Estimated
06:45AM 37.5583 126.7906 288° West  Level Estimated
06:46AM 37.5583 126.7906 288° West  Level Estimated
06:47AM 37.5583 126.7906 288° West  Level Estimated